Yuba, Wisconsin
Current Conditions -  °F | °C
As of 7:55 PM on Friday 31 Oct 2014 (Local Time) from KC35 Reporting Station
Clear Clear  
Wind Chill: 26°   Ceiling: Unl
Heat Index: 32°   Visibility: 10mi
Dew Point: 18°   Wind: 7mph
Humidity: 57%   Direction: 10°N
Pressure: 30.43"   Gusts: NA
Location:  43.6121°N, 90.3998°W
Report Text: KC35 010055Z AUTO 01006KT 10SM CLR 00/M08 A3043 RMK AO2 T00001076
Loading
Personal Weather Stations






























Interactive Weather Map
Tropical Storm Tracking
New forecast layout! Learn more

10-Day Weather Forecast

Advertisements
Track Severe Weather on mobile